Time;durP1;ratioP1;P1;durP2;ratioP2;P2;SDS_P1;SDS_P2;PMS_P1;PMS_P2;Temp;Humidity;BMP_temperature;BMP_pressure;BME280_temperature;BME280_humidity;BME280_pressure;Samples;Min_cycle;Max_cycle;Signal;HPM_P1;HPM_P2
2022/04/07 00:01:51;;;;;;;;;;;9.10;99.90;;;;;;5091034;28;20340;-62
2022/04/07 00:04:17;;;;;;;;;;;9.00;99.90;;;;;;5092892;28;19928;-62
2022/04/07 00:06:42;;;;;;;;;;;9.00;99.90;;;;;;5092840;28;19931;-62
2022/04/07 00:09:08;;;;;;;;;;;9.00;99.90;;;;;;5092500;28;20301;-62
2022/04/07 00:11:34;;;;;;;;;;;9.10;99.90;;;;;;5092371;28;19947;-63
2022/04/07 00:13:59;;;;;;;;;;;9.00;99.90;;;;;;5091309;28;19924;-63
2022/04/07 00:16:25;;;;;;;;;;;9.10;99.90;;;;;;5092362;28;19938;-62
2022/04/07 00:18:50;;;;;;;;;;;9.10;99.90;;;;;;5092891;28;19935;-62
2022/04/07 00:21:24;;;;;;;;;;;9.10;99.90;;;;;;5091367;28;19924;-62
2022/04/07 00:23:52;;;;;;;;;;;9.00;99.90;;;;;;5095039;28;19928;-62
2022/04/07 00:26:17;;;;;;;;;;;8.90;99.90;;;;;;5092280;28;20342;-63
2022/04/07 00:28:43;;;;;;;;;;;8.80;99.90;;;;;;5066275;28;19925;-62
2022/04/07 00:31:11;;;;;;;;;;;8.60;99.90;;;;;;5077589;28;20422;-63
2022/04/07 00:33:37;;;;;;;;;;;8.60;99.90;;;;;;5094972;28;19924;-63
2022/04/07 00:36:04;;;;;;;;;;;8.80;99.90;;;;;;5077506;28;19931;-63
2022/04/07 00:38:30;;;;;;;;;;;8.60;99.90;;;;;;5075667;28;19921;-63
2022/04/07 00:40:56;;;;;;;;;;;8.40;99.90;;;;;;5084412;28;20400;-63
2022/04/07 00:43:29;;;;;;;;;;;9.00;99.90;;;;;;5077041;28;20006;-63
2022/04/07 00:45:54;;;;;;;;;;;8.50;99.90;;;;;;5096370;28;20305;-63
2022/04/07 00:48:20;;;;;;;;;;;8.40;99.90;;;;;;5096329;28;19935;-63
2022/04/07 00:50:46;;;;;;;;;;;8.50;99.90;;;;;;5093662;28;19950;-63
2022/04/07 00:53:12;;;;;;;;;;;8.50;99.90;;;;;;5096308;28;20316;-63
2022/04/07 00:55:37;;;;;;;;;;;8.70;99.90;;;;;;5096300;28;19920;-63
2022/04/07 00:58:03;;;;;;;;;;;8.40;99.90;;;;;;5094892;28;19947;-63
2022/04/07 01:00:30;;;;;;;;;;;8.50;99.90;;;;;;5096228;28;19924;-62
2022/04/07 01:02:56;;;;;;;;;;;8.50;99.90;;;;;;5094939;28;19920;-62
2022/04/07 01:05:23;;;;;;;;;;;8.50;99.90;;;;;;5094996;28;20392;-62
2022/04/07 01:07:49;;;;;;;;;;;8.40;99.90;;;;;;5095437;28;19920;-63
2022/04/07 01:10:15;;;;;;;;;;;8.40;99.90;;;;;;5094423;28;19931;-62
2022/04/07 01:12:40;;;;;;;;;;;8.50;99.90;;;;;;5094468;28;19936;-62
2022/04/07 01:15:07;;;;;;;;;;;8.40;99.90;;;;;;5095695;28;19927;-62
2022/04/07 01:17:34;;;;;;;;;;;8.50;99.90;;;;;;5094573;28;19977;-62
2022/04/07 01:20:00;;;;;;;;;;;8.50;99.90;;;;;;5094393;28;20011;-62
2022/04/07 01:22:26;;;;;;;;;;;8.40;99.90;;;;;;5099035;28;19924;-62
2022/04/07 01:24:52;;;;;;;;;;;8.60;99.90;;;;;;5093856;28;19946;-62
2022/04/07 01:27:18;;;;;;;;;;;8.40;99.90;;;;;;5094694;28;19924;-62
2022/04/07 01:29:44;;;;;;;;;;;8.70;99.90;;;;;;5077214;28;19959;-62
2022/04/07 01:32:13;;;;;;;;;;;8.50;99.90;;;;;;5075527;28;19970;-62
2022/04/07 01:34:39;;;;;;;;;;;8.50;99.90;;;;;;5080889;28;19950;-63
2022/04/07 01:37:05;;;;;;;;;;;8.50;99.90;;;;;;5075194;28;19931;-63
2022/04/07 01:39:31;;;;;;;;;;;8.40;99.90;;;;;;5072833;28;19932;-62
2022/04/07 01:41:57;;;;;;;;;;;8.40;99.90;;;;;;5085640;28;19924;-63
2022/04/07 01:44:23;;;;;;;;;;;8.40;99.90;;;;;;5095281;28;20344;-63
2022/04/07 01:46:51;;;;;;;;;;;8.60;99.90;;;;;;5093040;28;19931;-63
2022/04/07 01:49:19;;;;;;;;;;;8.10;99.90;;;;;;5093809;28;19960;-63
2022/04/07 01:51:45;;;;;;;;;;;8.30;99.90;;;;;;5094693;28;19981;-63
2022/04/07 01:54:11;;;;;;;;;;;8.00;99.90;;;;;;5092856;28;20382;-63
2022/04/07 01:56:39;;;;;;;;;;;7.90;99.90;;;;;;5094559;28;19924;-63
2022/04/07 01:59:04;;;;;;;;;;;7.90;99.90;;;;;;5093516;28;19924;-63
2022/04/07 02:01:30;;;;;;;;;;;7.90;99.90;;;;;;5093681;28;19928;-63
2022/04/07 02:03:56;;;;;;;;;;;7.90;99.90;;;;;;5094371;28;20420;-63
2022/04/07 02:06:24;;;;;;;;;;;7.90;99.90;;;;;;5094535;28;19985;-63
2022/04/07 02:08:50;;;;;;;;;;;7.80;99.90;;;;;;5093799;28;19935;-63
2022/04/07 02:11:16;;;;;;;;;;;7.90;99.90;;;;;;5092848;28;20320;-63
2022/04/07 02:13:42;;;;;;;;;;;7.90;99.90;;;;;;5094488;28;19931;-62
2022/04/07 02:16:09;;;;;;;;;;;7.90;99.90;;;;;;5094028;28;20018;-62
2022/04/07 02:18:35;;;;;;;;;;;7.90;99.90;;;;;;5092570;28;19930;-62
2022/04/07 02:21:01;;;;;;;;;;;7.80;99.90;;;;;;5094417;28;19924;-62
2022/04/07 02:23:27;;;;;;;;;;;7.80;99.90;;;;;;5080263;28;19928;-62
2022/04/07 02:25:52;;;;;;;;;;;7.70;99.90;;;;;;5092674;28;19930;-62
2022/04/07 02:28:18;;;;;;;;;;;8.30;99.90;;;;;;5087812;28;19924;-62
2022/04/07 02:30:45;;;;;;;;;;;7.90;99.90;;;;;;5071875;28;19924;-62
2022/04/07 02:33:11;;;;;;;;;;;8.00;99.90;;;;;;5072245;28;19974;-62
2022/04/07 02:35:37;;;;;;;;;;;8.00;99.90;;;;;;5087183;28;19972;-62
2022/04/07 02:38:03;;;;;;;;;;;8.10;99.90;;;;;;5092059;28;20061;-62
2022/04/07 02:40:28;;;;;;;;;;;8.20;99.90;;;;;;5092612;28;19924;-62
2022/04/07 02:42:54;;;;;;;;;;;8.30;99.90;;;;;;5073216;28;20290;-62
2022/04/07 02:45:20;;;;;;;;;;;8.60;99.90;;;;;;5086865;28;19943;-62
2022/04/07 02:47:45;;;;;;;;;;;8.40;99.90;;;;;;5093789;28;19978;-62
2022/04/07 02:50:11;;;;;;;;;;;8.60;99.90;;;;;;5093124;28;20001;-62
2022/04/07 02:52:37;;;;;;;;;;;8.30;99.90;;;;;;5091656;28;20014;-62
2022/04/07 02:55:03;;;;;;;;;;;8.30;99.90;;;;;;5093535;28;20325;-62
2022/04/07 02:57:31;;;;;;;;;;;8.20;99.90;;;;;;5091808;28;19969;-62
2022/04/07 02:59:57;;;;;;;;;;;8.30;99.90;;;;;;5093949;28;20026;-63
2022/04/07 03:02:22;;;;;;;;;;;8.30;99.90;;;;;;5092888;28;20318;-62
2022/04/07 03:04:48;;;;;;;;;;;8.30;99.90;;;;;;5093164;28;19939;-62
2022/04/07 03:07:14;;;;;;;;;;;8.50;99.90;;;;;;5093906;28;19920;-62
2022/04/07 03:09:40;;;;;;;;;;;8.40;99.90;;;;;;5092148;28;19924;-62
2022/04/07 03:12:05;;;;;;;;;;;8.30;99.90;;;;;;5092489;28;19924;-62
2022/04/07 03:14:31;;;;;;;;;;;8.30;99.90;;;;;;5093468;28;19931;-62
2022/04/07 03:16:58;;;;;;;;;;;8.30;99.90;;;;;;5091798;28;19931;-62
2022/04/07 03:19:24;;;;;;;;;;;8.40;99.90;;;;;;5092482;28;20018;-62
2022/04/07 03:21:49;;;;;;;;;;;8.30;99.90;;;;;;5093498;28;19975;-62
2022/04/07 03:24:15;;;;;;;;;;;8.30;99.90;;;;;;5096458;28;19924;-62
2022/04/07 03:26:41;;;;;;;;;;;8.40;99.90;;;;;;5092736;28;19928;-62
2022/04/07 03:29:06;;;;;;;;;;;8.30;99.90;;;;;;5093145;28;19991;-62
2022/04/07 03:31:32;;;;;;;;;;;8.30;99.90;;;;;;5092889;28;19973;-62
2022/04/07 03:33:58;;;;;;;;;;;8.40;99.90;;;;;;5089982;28;20310;-62
2022/04/07 03:36:23;;;;;;;;;;;8.20;99.90;;;;;;5071763;28;19931;-62
2022/04/07 03:38:51;;;;;;;;;;;8.30;99.90;;;;;;5089611;28;19924;-62
2022/04/07 03:41:17;;;;;;;;;;;8.20;99.90;;;;;;5086360;28;19924;-62
2022/04/07 03:43:42;;;;;;;;;;;8.20;99.90;;;;;;5071781;28;20375;-62
2022/04/07 03:46:08;;;;;;;;;;;8.30;99.90;;;;;;5077229;28;19924;-62
2022/04/07 03:48:34;;;;;;;;;;;8.40;99.90;;;;;;5093394;28;19931;-62
2022/04/07 03:51:00;;;;;;;;;;;8.70;99.90;;;;;;5093217;28;19928;-62
2022/04/07 03:53:25;;;;;;;;;;;8.30;99.90;;;;;;5073980;28;19928;-62
2022/04/07 03:55:51;;;;;;;;;;;8.40;99.90;;;;;;5092900;28;19924;-62
2022/04/07 03:58:16;;;;;;;;;;;8.40;99.90;;;;;;5093394;28;19924;-62
2022/04/07 04:00:42;;;;;;;;;;;8.30;99.90;;;;;;5092093;28;19968;-62
2022/04/07 04:03:08;;;;;;;;;;;8.70;99.90;;;;;;5091309;28;20041;-62
2022/04/07 04:05:33;;;;;;;;;;;8.60;99.90;;;;;;5096889;28;19928;-62
2022/04/07 04:07:59;;;;;;;;;;;8.60;99.90;;;;;;5096250;28;19931;-62
2022/04/07 04:10:25;;;;;;;;;;;8.60;99.90;;;;;;5096910;28;19941;-62
2022/04/07 04:12:51;;;;;;;;;;;8.60;99.90;;;;;;5096391;28;19924;-62
2022/04/07 04:15:17;;;;;;;;;;;8.70;99.90;;;;;;5095182;28;19924;-63
2022/04/07 04:17:42;;;;;;;;;;;8.60;99.90;;;;;;5096721;28;20378;-62
2022/04/07 04:20:08;;;;;;;;;;;8.70;99.90;;;;;;5095266;28;19931;-62
2022/04/07 04:22:34;;;;;;;;;;;8.70;99.90;;;;;;5082553;28;19923;-62
2022/04/07 04:24:59;;;;;;;;;;;8.80;99.90;;;;;;5096519;28;19920;-62
2022/04/07 04:27:25;;;;;;;;;;;9.10;99.90;;;;;;5096843;28;20065;-62
2022/04/07 04:29:51;;;;;;;;;;;8.70;99.90;;;;;;5095541;28;19936;-62
2022/04/07 04:32:16;;;;;;;;;;;8.50;99.90;;;;;;5096421;28;19928;-63
2022/04/07 04:34:42;;;;;;;;;;;8.40;99.90;;;;;;5088103;28;20374;-63
2022/04/07 04:37:08;;;;;;;;;;;8.60;99.90;;;;;;5075669;28;19924;-62
2022/04/07 04:39:34;;;;;;;;;;;8.30;99.90;;;;;;5082572;28;19928;-63
2022/04/07 04:41:59;;;;;;;;;;;7.90;99.90;;;;;;5082776;28;19924;-62
2022/04/07 04:44:25;;;;;;;;;;;7.80;99.90;;;;;;5075147;28;19931;-62
2022/04/07 04:46:51;;;;;;;;;;;7.80;99.90;;;;;;5075839;28;19971;-62
2022/04/07 04:49:16;;;;;;;;;;;7.80;99.90;;;;;;5091119;28;19925;-62
2022/04/07 04:51:42;;;;;;;;;;;7.90;99.90;;;;;;5095609;28;19932;-63
2022/04/07 04:54:07;;;;;;;;;;;7.90;99.90;;;;;;5095870;28;19924;-63
2022/04/07 04:56:33;;;;;;;;;;;7.70;99.90;;;;;;5093774;28;20392;-62
2022/04/07 04:58:59;;;;;;;;;;;7.80;99.90;;;;;;5096071;28;20025;-63
2022/04/07 05:01:24;;;;;;;;;;;7.70;99.90;;;;;;5095693;28;20362;-62
2022/04/07 05:03:50;;;;;;;;;;;7.70;99.90;;;;;;5095248;28;20434;-62
2022/04/07 05:06:15;;;;;;;;;;;7.70;99.90;;;;;;5095742;28;20333;-62
2022/04/07 05:08:41;;;;;;;;;;;7.70;99.90;;;;;;5095755;28;19927;-62
2022/04/07 05:11:07;;;;;;;;;;;7.80;99.90;;;;;;5094957;28;20394;-62
2022/04/07 05:13:32;;;;;;;;;;;8.00;99.90;;;;;;5095264;28;19924;-62
2022/04/07 05:15:58;;;;;;;;;;;8.00;99.90;;;;;;5093893;28;19982;-62
2022/04/07 05:18:24;;;;;;;;;;;8.00;99.90;;;;;;5095029;28;19924;-62
2022/04/07 05:20:49;;;;;;;;;;;8.00;99.90;;;;;;5091095;28;20383;-63
2022/04/07 05:23:15;;;;;;;;;;;7.80;99.90;;;;;;5093077;28;20358;-62
2022/04/07 05:25:41;;;;;;;;;;;7.80;99.90;;;;;;5094907;28;20339;-62
2022/04/07 05:28:07;;;;;;;;;;;7.70;99.90;;;;;;5095349;28;20382;-63
2022/04/07 05:30:32;;;;;;;;;;;7.70;99.90;;;;;;5095269;28;19928;-63
2022/04/07 05:32:58;;;;;;;;;;;7.70;99.90;;;;;;5094592;28;19977;-62
2022/04/07 05:35:27;;;;;;;;;;;7.60;99.90;;;;;;5082017;28;19966;-63
2022/04/07 05:37:59;;;;;;;;;;;7.20;99.90;;;;;;5073264;28;20375;-63
2022/04/07 05:40:26;;;;;;;;;;;7.00;99.90;;;;;;5074066;28;20390;-63
2022/04/07 05:42:52;;;;;;;;;;;7.30;99.90;;;;;;5092871;28;19920;-63
2022/04/07 05:45:17;;;;;;;;;;;6.50;99.90;;;;;;5095054;28;19924;-63
2022/04/07 05:47:43;;;;;;;;;;;6.50;99.90;;;;;;5094560;28;19928;-63
2022/04/07 05:50:09;;;;;;;;;;;6.40;99.90;;;;;;5093240;28;19924;-63
2022/04/07 05:52:35;;;;;;;;;;;6.60;99.90;;;;;;5094531;28;20397;-64
2022/04/07 05:55:00;;;;;;;;;;;6.50;99.90;;;;;;5094715;28;19928;-63
2022/04/07 05:57:27;;;;;;;;;;;6.50;99.90;;;;;;5094725;28;19935;-64
2022/04/07 05:59:52;;;;;;;;;;;6.30;99.90;;;;;;5093287;28;20394;-63
2022/04/07 06:02:18;;;;;;;;;;;6.00;99.90;;;;;;5093371;28;20000;-64
2022/04/07 06:04:43;;;;;;;;;;;5.80;99.90;;;;;;5089270;28;20044;-64
2022/04/07 06:07:09;;;;;;;;;;;5.40;99.90;;;;;;5082478;28;19924;-64
2022/04/07 06:09:35;;;;;;;;;;;5.40;99.90;;;;;;5084988;28;19924;-63
2022/04/07 06:12:01;;;;;;;;;;;5.80;99.90;;;;;;5094569;28;20052;-63
2022/04/07 06:14:27;;;;;;;;;;;5.60;99.90;;;;;;5093652;28;20388;-63
2022/04/07 06:16:52;;;;;;;;;;;6.10;99.90;;;;;;5094196;28;19931;-64
2022/04/07 06:19:18;;;;;;;;;;;5.80;99.90;;;;;;5094490;28;19928;-64
2022/04/07 06:21:43;;;;;;;;;;;5.80;99.90;;;;;;5093994;28;19932;-64
2022/04/07 06:24:09;;;;;;;;;;;5.80;99.90;;;;;;5098758;28;19928;-64
2022/04/07 06:26:35;;;;;;;;;;;5.40;99.90;;;;;;5092323;28;20015;-64
2022/04/07 06:29:00;;;;;;;;;;;6.00;99.90;;;;;;5063078;28;19955;-64
2022/04/07 06:31:26;;;;;;;;;;;6.00;99.90;;;;;;5074002;28;19929;-64
2022/04/07 06:33:52;;;;;;;;;;;5.60;99.90;;;;;;5075500;28;20045;-64
2022/04/07 06:36:18;;;;;;;;;;;;;;;;;;5071485;28;19977;-63
2022/04/07 06:38:44;;;;;;;;;;;5.00;99.90;;;;;;5073758;28;19972;-63
2022/04/07 06:41:10;;;;;;;;;;;;;;;;;;5079029;28;20023;-63
2022/04/07 06:43:36;;;;;;;;;;;5.20;99.90;;;;;;5093068;28;19959;-63
2022/04/07 06:46:01;;;;;;;;;;;5.10;99.90;;;;;;5093922;28;19990;-63
2022/04/07 06:48:27;;;;;;;;;;;4.80;99.90;;;;;;5092619;28;19973;-63
2022/04/07 06:50:55;;;;;;;;;;;4.40;99.90;;;;;;5093065;28;19931;-62
2022/04/07 06:53:20;;;;;;;;;;;5.00;99.90;;;;;;5093245;28;20014;-63
2022/04/07 06:55:46;;;;;;;;;;;5.30;99.90;;;;;;5093733;28;19955;-63
2022/04/07 06:58:12;;;;;;;;;;;5.20;99.90;;;;;;5093335;28;20378;-63
2022/04/07 07:00:43;;;;;;;;;;;5.10;99.90;;;;;;5091726;28;20394;-63
2022/04/07 07:03:10;;;;;;;;;;;5.10;99.90;;;;;;5092977;28;20354;-63
2022/04/07 07:05:36;;;;;;;;;;;5.00;99.90;;;;;;5093897;28;19970;-63
2022/04/07 07:08:13;;;;;;;;;;;5.70;99.90;;;;;;5093395;28;19924;-63
2022/04/07 07:10:39;;;;;;;;;;;5.10;99.90;;;;;;5091145;28;20378;-63
2022/04/07 07:13:05;;;;;;;;;;;5.70;99.90;;;;;;5093441;28;19930;-63
2022/04/07 07:15:30;;;;;;;;;;;5.90;99.90;;;;;;5092163;28;19980;-63
2022/04/07 07:17:56;;;;;;;;;;;5.00;99.90;;;;;;5092655;28;19975;-63
2022/04/07 07:20:22;;;;;;;;;;;5.00;99.90;;;;;;5086753;28;19924;-63
2022/04/07 07:22:47;;;;;;;;;;;4.90;99.90;;;;;;5091637;28;20381;-62
2022/04/07 07:25:13;;;;;;;;;;;5.60;99.90;;;;;;5079863;28;19969;-62
2022/04/07 07:27:40;;;;;;;;;;;5.30;99.90;;;;;;5080477;28;19924;-63
2022/04/07 07:30:12;;;;;;;;;;;5.10;99.90;;;;;;5093271;28;20057;-63
2022/04/07 07:32:39;;;;;;;;;;;5.20;99.90;;;;;;5092859;28;19976;-63
2022/04/07 07:35:05;;;;;;;;;;;5.40;99.90;;;;;;5093119;28;20336;-63
2022/04/07 07:37:31;;;;;;;;;;;4.90;99.90;;;;;;5091258;28;19928;-63
2022/04/07 07:39:57;;;;;;;;;;;5.30;99.90;;;;;;5098677;28;19924;-63
2022/04/07 07:42:23;;;;;;;;;;;5.70;99.90;;;;;;5088954;28;19924;-62
2022/04/07 07:44:49;;;;;;;;;;;5.80;99.90;;;;;;5088992;28;19932;-62
2022/04/07 07:47:15;;;;;;;;;;;5.50;99.90;;;;;;5088964;28;19999;-63
2022/04/07 07:49:41;;;;;;;;;;;5.60;99.90;;;;;;5089501;28;20011;-62
2022/04/07 07:52:06;;;;;;;;;;;5.70;99.90;;;;;;5089810;28;19924;-62
2022/04/07 07:54:32;;;;;;;;;;;5.60;99.90;;;;;;5094961;28;19924;-62
2022/04/07 07:56:58;;;;;;;;;;;5.40;99.90;;;;;;5099780;28;20375;-62
2022/04/07 07:59:24;;;;;;;;;;;5.60;99.90;;;;;;5098903;28;20303;-62
2022/04/07 08:01:49;;;;;;;;;;;5.70;99.90;;;;;;5100154;28;19924;-62
2022/04/07 08:04:15;;;;;;;;;;;5.80;99.90;;;;;;5099493;28;19930;-62
2022/04/07 08:06:41;;;;;;;;;;;6.10;99.90;;;;;;5098759;28;19950;-62
2022/04/07 08:09:09;;;;;;;;;;;5.90;99.90;;;;;;5100042;28;19947;-62
2022/04/07 08:11:35;;;;;;;;;;;5.70;99.90;;;;;;5099166;28;20402;-63
2022/04/07 08:14:01;;;;;;;;;;;5.90;99.90;;;;;;5097344;28;19982;-62
2022/04/07 08:16:29;;;;;;;;;;;5.90;99.90;;;;;;5099931;28;19979;-62
2022/04/07 08:18:55;;;;;;;;;;;6.00;99.90;;;;;;5092168;28;20374;-62
2022/04/07 08:21:20;;;;;;;;;;;6.20;99.90;;;;;;5087584;28;19983;-62
2022/04/07 08:23:46;;;;;;;;;;;6.30;99.90;;;;;;5091269;28;19993;-62
2022/04/07 08:26:12;;;;;;;;;;;6.00;99.90;;;;;;5080661;28;19939;-62
2022/04/07 08:28:37;;;;;;;;;;;6.20;99.90;;;;;;5088335;28;19924;-62
2022/04/07 08:31:03;;;;;;;;;;;5.90;99.90;;;;;;5098089;28;20397;-62
2022/04/07 08:33:29;;;;;;;;;;;6.00;99.90;;;;;;5099477;28;19947;-62
2022/04/07 08:35:54;;;;;;;;;;;6.60;99.90;;;;;;5081019;28;20013;-62
2022/04/07 08:38:20;;;;;;;;;;;5.80;99.90;;;;;;5085430;28;19935;-62
2022/04/07 08:40:49;;;;;;;;;;;6.00;99.90;;;;;;5098058;28;20466;-62
2022/04/07 08:43:14;;;;;;;;;;;6.50;99.90;;;;;;5098578;28;19920;-62
2022/04/07 08:45:42;;;;;;;;;;;7.10;99.90;;;;;;5099356;28;19928;-62
2022/04/07 08:48:09;;;;;;;;;;;6.30;99.90;;;;;;5097726;28;19924;-62
2022/04/07 08:50:37;;;;;;;;;;;6.50;99.90;;;;;;5096388;28;19928;-62
2022/04/07 08:53:03;;;;;;;;;;;6.60;99.90;;;;;;5090560;28;19925;-62
2022/04/07 08:55:28;;;;;;;;;;;6.70;99.90;;;;;;5087164;28;19956;-62
2022/04/07 08:57:54;;;;;;;;;;;6.80;99.90;;;;;;5095542;28;19931;-62
2022/04/07 09:00:20;;;;;;;;;;;7.00;99.90;;;;;;5087322;28;19931;-62
2022/04/07 09:02:46;;;;;;;;;;;7.10;99.90;;;;;;5094869;28;19924;-62
2022/04/07 09:05:12;;;;;;;;;;;7.20;99.90;;;;;;5095045;28;19930;-62
2022/04/07 09:07:38;;;;;;;;;;;7.40;99.90;;;;;;5077583;28;20425;-63
2022/04/07 09:10:04;;;;;;;;;;;7.50;99.90;;;;;;5094605;28;19924;-62
2022/04/07 09:12:30;;;;;;;;;;;7.60;99.90;;;;;;5073466;28;19933;-63
2022/04/07 09:14:57;;;;;;;;;;;7.80;99.90;;;;;;5091281;28;19974;-62
2022/04/07 09:17:23;;;;;;;;;;;7.80;99.90;;;;;;5093002;28;19924;-62
2022/04/07 09:19:49;;;;;;;;;;;8.00;99.90;;;;;;5093789;28;19931;-63
2022/04/07 09:22:14;;;;;;;;;;;8.20;99.90;;;;;;5095020;28;20309;-63
2022/04/07 09:24:41;;;;;;;;;;;8.20;99.90;;;;;;5092290;28;20390;-62
2022/04/07 09:27:08;;;;;;;;;;;8.30;99.90;;;;;;5094563;28;19924;-63
2022/04/07 09:29:39;;;;;;;;;;;8.30;99.90;;;;;;5094874;28;19998;-63
2022/04/07 09:32:15;;;;;;;;;;;8.30;99.90;;;;;;5116244;27;19928;-62
2022/04/07 09:34:42;;;;;;;;;;;8.30;99.90;;;;;;5092369;28;19932;-63
2022/04/07 09:37:08;;;;;;;;;;;8.40;99.90;;;;;;5092414;28;20002;-63
2022/04/07 09:39:36;;;;;;;;;;;8.40;99.90;;;;;;5075607;28;19924;-63
2022/04/07 09:42:21;;;;;;;;;;;8.40;99.90;;;;;;5093618;28;19924;-62
2022/04/07 09:44:51;;;;;;;;;;;8.50;99.90;;;;;;5094130;28;20014;-62
2022/04/07 09:47:17;;;;;;;;;;;8.50;99.90;;;;;;5093540;28;19931;-62
2022/04/07 09:49:43;;;;;;;;;;;8.50;99.90;;;;;;5094338;28;19924;-62
2022/04/07 09:52:10;;;;;;;;;;;8.70;99.90;;;;;;5093379;28;19931;-63
2022/04/07 09:54:39;;;;;;;;;;;9.20;99.90;;;;;;5094806;28;20391;-62
2022/04/07 09:57:05;;;;;;;;;;;9.30;99.90;;;;;;5093013;28;19931;-63
2022/04/07 09:59:30;;;;;;;;;;;9.40;99.90;;;;;;5093722;28;19935;-63
2022/04/07 10:01:57;;;;;;;;;;;9.30;99.90;;;;;;5093749;28;20302;-63
2022/04/07 10:04:22;;;;;;;;;;;9.20;99.90;;;;;;5092847;28;20344;-62
2022/04/07 10:06:50;;;;;;;;;;;9.10;99.90;;;;;;5093325;28;19928;-62
2022/04/07 10:09:17;;;;;;;;;;;9.10;99.90;;;;;;5092643;28;19924;-62
2022/04/07 10:11:43;;;;;;;;;;;9.20;99.90;;;;;;5092507;28;19932;-62
2022/04/07 10:14:08;;;;;;;;;;;9.20;99.90;;;;;;5093941;28;19924;-63
2022/04/07 10:16:34;;;;;;;;;;;9.10;99.90;;;;;;5094077;28;19982;-63
2022/04/07 10:19:03;;;;;;;;;;;9.30;99.90;;;;;;5094281;28;19924;-63
2022/04/07 10:21:33;;;;;;;;;;;9.30;99.90;;;;;;5093331;28;19924;-63
2022/04/07 10:24:14;;;;;;;;;;;9.30;99.90;;;;;;5099248;28;19939;-62
2022/04/07 10:26:43;;;;;;;;;;;9.30;99.90;;;;;;5093937;28;20401;-62
2022/04/07 10:29:18;;;;;;;;;;;9.10;99.90;;;;;;5080440;28;19947;-63
2022/04/07 10:32:04;;;;;;;;;;;8.00;99.90;;;;;;5074018;28;19924;-63
2022/04/07 10:34:30;;;;;;;;;;;7.70;99.90;;;;;;5083776;28;19924;-63
2022/04/07 10:37:01;;;;;;;;;;;7.50;99.90;;;;;;5072605;28;20436;-62
2022/04/07 10:39:27;;;;;;;;;;;7.30;99.90;;;;;;5072424;28;19967;-63
2022/04/07 10:41:53;;;;;;;;;;;7.80;99.90;;;;;;5082215;28;19974;-63
2022/04/07 10:44:19;;;;;;;;;;;8.40;99.90;;;;;;5094031;28;19924;-62
2022/04/07 10:46:45;;;;;;;;;;;8.30;99.90;;;;;;5094207;28;19967;-63
2022/04/07 10:49:12;;;;;;;;;;;7.90;99.90;;;;;;5084169;28;19950;-63
2022/04/07 10:51:40;;;;;;;;;;;6.80;99.90;;;;;;5092172;28;19928;-63
2022/04/07 10:54:05;;;;;;;;;;;6.00;99.90;;;;;;5094082;28;19924;-62
2022/04/07 10:56:34;;;;;;;;;;;6.00;99.90;;;;;;5092842;28;19931;-63
2022/04/07 10:59:12;;;;;;;;;;;6.30;99.90;;;;;;5093718;28;19924;-63
2022/04/07 11:01:38;;;;;;;;;;;6.20;99.90;;;;;;5093813;28;19930;-62
2022/04/07 11:04:16;;;;;;;;;;;7.50;99.90;;;;;;5091258;28;20003;-62
2022/04/07 11:07:00;;;;;;;;;;;7.50;99.90;;;;;;5092448;28;19970;-63
2022/04/07 11:09:26;;;;;;;;;;;7.60;99.90;;;;;;5091172;28;19982;-63
2022/04/07 11:11:52;;;;;;;;;;;7.30;99.90;;;;;;5091744;28;19924;-64
2022/04/07 11:14:25;;;;;;;;;;;7.30;99.90;;;;;;5091362;28;19931;-63
2022/04/07 11:16:52;;;;;;;;;;;6.70;99.90;;;;;;5091284;28;20381;-63
2022/04/07 11:19:20;;;;;;;;;;;6.30;99.90;;;;;;5093068;28;20397;-63
2022/04/07 11:22:05;;;;;;;;;;;6.40;99.90;;;;;;5094354;28;20293;-63
2022/04/07 11:24:32;;;;;;;;;;;6.30;99.90;;;;;;5092345;28;19975;-63
2022/04/07 11:27:18;;;;;;;;;;;6.50;99.90;;;;;;5082316;28;20379;-63
2022/04/07 11:30:00;;;;;;;;;;;7.10;99.90;;;;;;5081158;28;20255;-63
2022/04/07 11:32:26;;;;;;;;;;;7.50;99.90;;;;;;5081711;28;19928;-63
2022/04/07 11:34:52;;;;;;;;;;;7.50;99.90;;;;;;5081257;28;20435;-63
2022/04/07 11:37:19;;;;;;;;;;;7.90;99.90;;;;;;5084249;28;19935;-63
2022/04/07 11:39:46;;;;;;;;;;;8.40;99.90;;;;;;5081658;28;19935;-63
2022/04/07 11:42:13;;;;;;;;;;;8.80;99.90;;;;;;5083539;28;19925;-63
2022/04/07 11:44:38;;;;;;;;;;;9.20;99.90;;;;;;5081727;28;19928;-63
2022/04/07 11:47:19;;;;;;;;;;;9.50;99.90;;;;;;5081481;28;20277;-63
2022/04/07 11:49:45;;;;;;;;;;;9.50;99.90;;;;;;5093003;28;19931;-63
2022/04/07 11:52:12;;;;;;;;;;;9.60;99.90;;;;;;5080536;28;19986;-63
2022/04/07 11:54:37;;;;;;;;;;;9.70;99.90;;;;;;5084329;28;19925;-63
2022/04/07 11:57:04;;;;;;;;;;;9.60;99.90;;;;;;5087056;28;19925;-63
2022/04/07 11:59:34;;;;;;;;;;;9.00;99.90;;;;;;5092398;28;19979;-63
2022/04/07 12:02:00;;;;;;;;;;;8.40;99.90;;;;;;5092424;28;19977;-63
2022/04/07 12:04:30;;;;;;;;;;;8.20;99.90;;;;;;5091635;28;20301;-63
2022/04/07 12:06:55;;;;;;;;;;;8.40;99.90;;;;;;5080190;28;19932;-63
2022/04/07 12:09:21;;;;;;;;;;;8.70;99.90;;;;;;5092733;28;19928;-63
2022/04/07 12:11:47;;;;;;;;;;;9.00;99.90;;;;;;5077419;28;19931;-63
2022/04/07 12:14:15;;;;;;;;;;;9.00;99.90;;;;;;5070462;28;20345;-63
2022/04/07 12:16:42;;;;;;;;;;;8.90;99.90;;;;;;5082630;28;19928;-63
2022/04/07 12:19:08;;;;;;;;;;;9.00;99.90;;;;;;5090922;28;19967;-63
2022/04/07 12:21:52;;;;;;;;;;;9.10;99.90;;;;;;5091938;28;20263;-63
2022/04/07 12:24:18;;;;;;;;;;;9.10;99.90;;;;;;5089618;28;19928;-63
2022/04/07 12:26:44;;;;;;;;;;;9.30;99.90;;;;;;5096136;28;20048;-63
2022/04/07 12:29:14;;;;;;;;;;;9.60;99.90;;;;;;5094722;28;19977;-63
2022/04/07 12:31:39;;;;;;;;;;;10.30;99.90;;;;;;5094780;28;19925;-63
2022/04/07 12:34:06;;;;;;;;;;;10.80;99.90;;;;;;5094051;28;19931;-63
2022/04/07 12:36:33;;;;;;;;;;;10.60;99.90;;;;;;5095910;28;19947;-63
2022/04/07 12:39:00;;;;;;;;;;;10.30;99.90;;;;;;5096272;28;19924;-63
2022/04/07 12:41:38;;;;;;;;;;;10.10;99.90;;;;;;5087739;28;20035;-64
2022/04/07 12:44:04;;;;;;;;;;;9.80;99.90;;;;;;5093595;28;20289;-64
2022/04/07 12:46:43;;;;;;;;;;;8.70;99.90;;;;;;5085768;28;20289;-65
2022/04/07 12:49:09;;;;;;;;;;;8.00;99.90;;;;;;5092888;28;19975;-64
2022/04/07 12:51:35;;;;;;;;;;;;;;;;;;5080599;28;19970;-64
2022/04/07 12:54:08;;;;;;;;;;;5.90;99.90;;;;;;5091003;28;19929;-63
2022/04/07 12:56:35;;;;;;;;;;;5.60;99.90;;;;;;5075800;28;19944;-63
2022/04/07 12:59:03;;;;;;;;;;;5.90;99.90;;;;;;5095334;28;20297;-63
2022/04/07 13:01:29;;;;;;;;;;;6.60;99.90;;;;;;5095080;28;19927;-63
2022/04/07 13:03:56;;;;;;;;;;;7.20;99.90;;;;;;5092108;28;19931;-63
2022/04/07 13:06:23;;;;;;;;;;;7.70;99.90;;;;;;5082817;28;19946;-63
2022/04/07 13:08:48;;;;;;;;;;;8.20;99.90;;;;;;5084527;28;19975;-63
2022/04/07 13:11:31;;;;;;;;;;;8.50;99.90;;;;;;5085984;28;20009;-63
2022/04/07 13:13:57;;;;;;;;;;;8.40;99.90;;;;;;5085071;28;20017;-63
2022/04/07 13:16:23;;;;;;;;;;;7.90;99.90;;;;;;5084475;28;20005;-63
2022/04/07 13:18:48;;;;;;;;;;;7.60;99.90;;;;;;5092133;28;19919;-63
2022/04/07 13:21:15;;;;;;;;;;;7.40;99.90;;;;;;5080170;28;19924;-63
2022/04/07 13:23:41;;;;;;;;;;;7.40;99.90;;;;;;5098309;28;19928;-63
2022/04/07 13:26:06;;;;;;;;;;;7.80;99.90;;;;;;5094506;28;20392;-64
2022/04/07 13:28:32;;;;;;;;;;;6.90;99.90;;;;;;5095791;28;20294;-64
2022/04/07 13:30:57;;;;;;;;;;;7.20;99.90;;;;;;5094321;28;20324;-64
2022/04/07 13:33:23;;;;;;;;;;;7.80;99.90;;;;;;5094076;28;19924;-63
2022/04/07 13:35:51;;;;;;;;;;;7.50;99.90;;;;;;5094572;28;19924;-63
2022/04/07 13:38:17;;;;;;;;;;;7.10;99.90;;;;;;5092285;28;20310;-63
2022/04/07 13:40:42;;;;;;;;;;;7.00;99.90;;;;;;5076432;28;19924;-65
2022/04/07 13:43:08;;;;;;;;;;;;;;;;;;5093838;28;19924;-65
2022/04/07 13:45:34;;;;;;;;;;;5.90;99.90;;;;;;5094186;28;19924;-65
2022/04/07 13:48:01;;;;;;;;;;;5.20;99.90;;;;;;5095135;28;19948;-64
2022/04/07 13:50:26;;;;;;;;;;;5.00;99.90;;;;;;5094943;28;19928;-64
2022/04/07 13:52:52;;;;;;;;;;;5.10;99.90;;;;;;5094110;28;19931;-64
2022/04/07 13:55:18;;;;;;;;;;;5.30;99.90;;;;;;5076240;28;19932;-64
2022/04/07 13:57:43;;;;;;;;;;;5.40;99.90;;;;;;5089547;28;20002;-63
2022/04/07 14:00:09;;;;;;;;;;;5.50;99.90;;;;;;5094128;28;19932;-63
2022/04/07 14:02:41;;;;;;;;;;;5.60;99.90;;;;;;5094977;28;19935;-63
2022/04/07 14:05:08;;;;;;;;;;;5.60;99.90;;;;;;5093684;28;19928;-63
2022/04/07 14:07:33;;;;;;;;;;;5.70;99.90;;;;;;5094774;28;19924;-63
2022/04/07 14:09:59;;;;;;;;;;;5.70;99.90;;;;;;5094699;28;19931;-63
2022/04/07 14:12:25;;;;;;;;;;;5.90;99.90;;;;;;5078559;28;19935;-64
2022/04/07 14:14:50;;;;;;;;;;;6.70;99.90;;;;;;5093497;28;19935;-63
2022/04/07 14:17:17;;;;;;;;;;;6.00;99.90;;;;;;5083694;28;19924;-63
2022/04/07 14:19:42;;;;;;;;;;;6.00;99.90;;;;;;5093575;28;20361;-63
2022/04/07 14:22:08;;;;;;;;;;;6.00;99.90;;;;;;5098040;28;19931;-63
2022/04/07 14:24:34;;;;;;;;;;;6.20;99.90;;;;;;5094375;28;19924;-63
2022/04/07 14:27:01;;;;;;;;;;;6.40;99.90;;;;;;5092254;28;20312;-63
2022/04/07 14:29:28;;;;;;;;;;;6.90;99.90;;;;;;5093885;28;19932;-64